sensor_id;sensor_type;location;lat;lon;timestamp;pressure;altitude;pressure_sealevel;temperature;humidity
16451;BME280;12243;42.708;23.310;2023-04-30T00:00:22;94726.88;;;11.22;86.38
16451;BME280;12243;42.708;23.310;2023-04-30T00:02:49;94725.66;;;11.26;86.43
16451;BME280;12243;42.708;23.310;2023-04-30T00:05:16;94721.84;;;11.11;86.90
16451;BME280;12243;42.708;23.310;2023-04-30T00:07:44;94729.38;;;11.14;86.81
16451;BME280;12243;42.708;23.310;2023-04-30T00:10:12;94728.28;;;11.07;85.94
16451;BME280;12243;42.708;23.310;2023-04-30T00:12:39;94722.81;;;11.00;86.40
16451;BME280;12243;42.708;23.310;2023-04-30T00:15:06;94720.47;;;10.87;86.95
16451;BME280;12243;42.708;23.310;2023-04-30T00:17:33;94721.00;;;10.91;86.84
16451;BME280;12243;42.708;23.310;2023-04-30T00:20:00;94722.81;;;10.90;85.87
16451;BME280;12243;42.708;23.310;2023-04-30T00:22:27;94717.31;;;10.93;86.28
16451;BME280;12243;42.708;23.310;2023-04-30T00:24:54;94718.56;;;10.89;87.19
16451;BME280;12243;42.708;23.310;2023-04-30T00:27:22;94714.44;;;10.87;87.61
16451;BME280;12243;42.708;23.310;2023-04-30T00:29:49;94720.06;;;10.82;88.36
16451;BME280;12243;42.708;23.310;2023-04-30T00:32:16;94718.44;;;10.81;88.95
16451;BME280;12243;42.708;23.310;2023-04-30T00:34:43;94723.22;;;10.86;89.60
16451;BME280;12243;42.708;23.310;2023-04-30T00:37:10;94724.03;;;10.86;88.93
16451;BME280;12243;42.708;23.310;2023-04-30T00:39:37;94721.97;;;10.80;90.08
16451;BME280;12243;42.708;23.310;2023-04-30T00:42:04;94719.91;;;10.84;90.23
16451;BME280;12243;42.708;23.310;2023-04-30T00:44:32;94718.13;;;10.84;90.38
16451;BME280;12243;42.708;23.310;2023-04-30T00:46:59;94723.34;;;10.75;90.48
16451;BME280;12243;42.708;23.310;2023-04-30T00:49:26;94722.66;;;10.63;91.08
16451;BME280;12243;42.708;23.310;2023-04-30T00:51:53;94722.78;;;10.52;92.47
16451;BME280;12243;42.708;23.310;2023-04-30T00:54:20;94723.31;;;10.45;92.65
16451;BME280;12243;42.708;23.310;2023-04-30T00:56:47;94724.53;;;10.41;93.12
16451;BME280;12243;42.708;23.310;2023-04-30T00:59:15;94716.19;;;10.47;92.41
16451;BME280;12243;42.708;23.310;2023-04-30T01:01:43;94725.50;;;10.40;92.65
16451;BME280;12243;42.708;23.310;2023-04-30T01:04:11;94712.06;;;10.35;92.88
16451;BME280;12243;42.708;23.310;2023-04-30T01:06:38;94717.56;;;10.32;92.85
16451;BME280;12243;42.708;23.310;2023-04-30T01:09:05;94719.19;;;10.33;92.89
16451;BME280;12243;42.708;23.310;2023-04-30T01:11:42;94719.47;;;10.30;91.46
16451;BME280;12243;42.708;23.310;2023-04-30T01:14:17;94714.06;;;10.22;91.84
16451;BME280;12243;42.708;23.310;2023-04-30T01:16:52;94715.00;;;10.21;91.95
16451;BME280;12243;42.708;23.310;2023-04-30T01:19:28;94721.59;;;10.25;90.55
16451;BME280;12243;42.708;23.310;2023-04-30T01:22:03;94716.22;;;10.17;91.24
16451;BME280;12243;42.708;23.310;2023-04-30T01:24:50;94722.50;;;10.05;92.44
16451;BME280;12243;42.708;23.310;2023-04-30T01:27:31;94719.91;;;10.05;93.21
16451;BME280;12243;42.708;23.310;2023-04-30T01:30:07;94717.16;;;10.06;93.31
16451;BME280;12243;42.708;23.310;2023-04-30T01:32:34;94722.38;;;10.06;92.85
16451;BME280;12243;42.708;23.310;2023-04-30T01:35:01;94718.50;;;10.00;93.08
16451;BME280;12243;42.708;23.310;2023-04-30T01:37:32;94725.75;;;9.97;93.85
16451;BME280;12243;42.708;23.310;2023-04-30T01:40:16;94714.88;;;9.82;95.23
16451;BME280;12243;42.708;23.310;2023-04-30T01:42:56;94712.59;;;9.89;95.53
16451;BME280;12243;42.708;23.310;2023-04-30T01:45:49;94720.28;;;10.00;95.27
16451;BME280;12243;42.708;23.310;2023-04-30T01:48:25;94719.06;;;10.04;94.45
16451;BME280;12243;42.708;23.310;2023-04-30T01:51:00;94720.00;;;9.93;94.71
16451;BME280;12243;42.708;23.310;2023-04-30T01:53:34;94720.09;;;9.82;95.51
16451;BME280;12243;42.708;23.310;2023-04-30T01:56:05;94724.50;;;9.91;96.58
16451;BME280;12243;42.708;23.310;2023-04-30T01:58:36;94719.16;;;9.93;96.03
16451;BME280;12243;42.708;23.310;2023-04-30T02:01:05;94727.22;;;9.90;95.96
16451;BME280;12243;42.708;23.310;2023-04-30T02:03:32;94715.75;;;9.92;96.01
16451;BME280;12243;42.708;23.310;2023-04-30T02:05:59;94719.72;;;9.96;96.38
16451;BME280;12243;42.708;23.310;2023-04-30T02:08:26;94713.59;;;9.97;96.64
16451;BME280;12243;42.708;23.310;2023-04-30T02:10:53;94712.22;;;10.03;95.95
16451;BME280;12243;42.708;23.310;2023-04-30T02:13:20;94713.31;;;10.00;95.68
16451;BME280;12243;42.708;23.310;2023-04-30T02:15:47;94715.78;;;10.02;95.44
16451;BME280;12243;42.708;23.310;2023-04-30T02:18:15;94721.00;;;10.02;95.44
16451;BME280;12243;42.708;23.310;2023-04-30T02:20:42;94725.63;;;9.98;94.70
16451;BME280;12243;42.708;23.310;2023-04-30T02:23:10;94719.06;;;9.94;94.91
16451;BME280;12243;42.708;23.310;2023-04-30T02:25:37;94716.31;;;9.96;95.12
16451;BME280;12243;42.708;23.310;2023-04-30T02:28:05;94721.66;;;9.94;95.42
16451;BME280;12243;42.708;23.310;2023-04-30T02:30:31;94721.50;;;9.96;94.73
16451;BME280;12243;42.708;23.310;2023-04-30T02:32:58;94716.31;;;9.96;95.16
16451;BME280;12243;42.708;23.310;2023-04-30T02:35:30;94714.53;;;9.96;95.47
16451;BME280;12243;42.708;23.310;2023-04-30T02:37:56;94717.69;;;10.00;95.46
16451;BME280;12243;42.708;23.310;2023-04-30T02:40:23;94710.44;;;10.03;95.90
16451;BME280;12243;42.708;23.310;2023-04-30T02:42:51;94717.97;;;10.07;95.35
16451;BME280;12243;42.708;23.310;2023-04-30T02:45:19;94722.41;;;10.16;95.15
16451;BME280;12243;42.708;23.310;2023-04-30T02:47:46;94723.78;;;10.20;94.32
16451;BME280;12243;42.708;23.310;2023-04-30T02:50:13;94723.38;;;10.24;93.41
16451;BME280;12243;42.708;23.310;2023-04-30T02:52:44;94725.63;;;10.29;92.20
16451;BME280;12243;42.708;23.310;2023-04-30T02:55:12;94719.47;;;10.30;91.29
16451;BME280;12243;42.708;23.310;2023-04-30T02:57:39;94726.56;;;10.28;90.92
16451;BME280;12243;42.708;23.310;2023-04-30T03:00:07;94728.22;;;10.29;90.78
16451;BME280;12243;42.708;23.310;2023-04-30T03:02:34;94725.06;;;10.35;89.94
16451;BME280;12243;42.708;23.310;2023-04-30T03:05:02;94728.50;;;10.26;89.38
16451;BME280;12243;42.708;23.310;2023-04-30T03:07:28;94730.13;;;10.27;89.43
16451;BME280;12243;42.708;23.310;2023-04-30T03:09:57;94729.81;;;10.20;89.38
16451;BME280;12243;42.708;23.310;2023-04-30T03:12:24;94737.50;;;10.22;88.54
16451;BME280;12243;42.708;23.310;2023-04-30T03:14:51;94739.31;;;10.00;89.12
16451;BME280;12243;42.708;23.310;2023-04-30T03:17:18;94739.59;;;9.97;88.99
16451;BME280;12243;42.708;23.310;2023-04-30T03:19:44;94744.25;;;9.94;89.84
16451;BME280;12243;42.708;23.310;2023-04-30T03:22:14;94748.88;;;9.90;89.45
16451;BME280;12243;42.708;23.310;2023-04-30T03:24:43;94747.88;;;9.82;89.63
16451;BME280;12243;42.708;23.310;2023-04-30T03:27:12;94735.13;;;9.78;90.04
16451;BME280;12243;42.708;23.310;2023-04-30T03:29:39;94747.16;;;9.70;89.83
16451;BME280;12243;42.708;23.310;2023-04-30T03:32:08;94744.09;;;9.65;90.86
16451;BME280;12243;42.708;23.310;2023-04-30T03:34:36;94745.22;;;9.72;91.35
16451;BME280;12243;42.708;23.310;2023-04-30T03:37:03;94753.47;;;9.77;91.68
16451;BME280;12243;42.708;23.310;2023-04-30T03:39:30;94757.63;;;9.89;90.10
16451;BME280;12243;42.708;23.310;2023-04-30T03:41:57;94761.03;;;9.90;90.01
16451;BME280;12243;42.708;23.310;2023-04-30T03:44:26;94760.41;;;9.97;88.93
16451;BME280;12243;42.708;23.310;2023-04-30T03:46:53;94762.97;;;9.88;89.82
16451;BME280;12243;42.708;23.310;2023-04-30T03:49:20;94772.97;;;9.92;90.42
16451;BME280;12243;42.708;23.310;2023-04-30T03:51:46;94774.63;;;9.93;89.83
16451;BME280;12243;42.708;23.310;2023-04-30T03:54:13;94774.50;;;9.95;89.87
16451;BME280;12243;42.708;23.310;2023-04-30T03:56:40;94777.53;;;10.00;88.73
16451;BME280;12243;42.708;23.310;2023-04-30T03:59:07;94774.91;;;9.90;88.26
16451;BME280;12243;42.708;23.310;2023-04-30T04:01:36;94772.81;;;9.84;89.16
16451;BME280;12243;42.708;23.310;2023-04-30T04:04:03;94780.34;;;9.87;89.98
16451;BME280;12243;42.708;23.310;2023-04-30T04:06:31;94774.91;;;9.90;90.47
16451;BME280;12243;42.708;23.310;2023-04-30T04:08:58;94785.88;;;9.94;89.36
16451;BME280;12243;42.708;23.310;2023-04-30T04:11:25;94782.16;;;9.96;89.92
16451;BME280;12243;42.708;23.310;2023-04-30T04:13:52;94779.88;;;10.03;89.34
16451;BME280;12243;42.708;23.310;2023-04-30T04:16:20;94775.47;;;10.03;89.75
16451;BME280;12243;42.708;23.310;2023-04-30T04:18:48;94778.84;;;10.15;89.49
16451;BME280;12243;42.708;23.310;2023-04-30T04:21:15;94781.19;;;10.18;88.93
16451;BME280;12243;42.708;23.310;2023-04-30T04:23:42;94776.47;;;10.33;88.29
16451;BME280;12243;42.708;23.310;2023-04-30T04:26:09;94771.84;;;10.46;88.17
16451;BME280;12243;42.708;23.310;2023-04-30T04:28:37;94781.16;;;10.59;86.89
16451;BME280;12243;42.708;23.310;2023-04-30T04:31:05;94785.31;;;10.71;87.35
16451;BME280;12243;42.708;23.310;2023-04-30T04:33:32;94787.81;;;10.82;87.05
16451;BME280;12243;42.708;23.310;2023-04-30T04:36:00;94796.84;;;10.97;86.02
16451;BME280;12243;42.708;23.310;2023-04-30T04:38:28;94795.78;;;11.19;84.69
16451;BME280;12243;42.708;23.310;2023-04-30T04:40:55;94785.06;;;11.32;84.16
16451;BME280;12243;42.708;23.310;2023-04-30T04:43:23;94790.69;;;11.47;83.16
16451;BME280;12243;42.708;23.310;2023-04-30T04:45:49;94792.03;;;11.61;80.77
16451;BME280;12243;42.708;23.310;2023-04-30T04:48:17;94795.22;;;11.45;80.96
16451;BME280;12243;42.708;23.310;2023-04-30T04:50:44;94793.31;;;11.37;80.49
16451;BME280;12243;42.708;23.310;2023-04-30T04:53:13;94800.16;;;11.38;81.58
16451;BME280;12243;42.708;23.310;2023-04-30T04:55:39;94801.13;;;11.37;81.69
16451;BME280;12243;42.708;23.310;2023-04-30T04:58:06;94798.78;;;11.34;82.30
16451;BME280;12243;42.708;23.310;2023-04-30T05:00:33;94810.03;;;11.35;83.04
16451;BME280;12243;42.708;23.310;2023-04-30T05:03:00;94810.84;;;11.35;82.86
16451;BME280;12243;42.708;23.310;2023-04-30T05:05:28;94806.47;;;11.45;81.34
16451;BME280;12243;42.708;23.310;2023-04-30T05:07:55;94811.94;;;11.42;82.08
16451;BME280;12243;42.708;23.310;2023-04-30T05:10:23;94804.56;;;11.48;80.64
16451;BME280;12243;42.708;23.310;2023-04-30T05:12:50;94807.56;;;11.53;82.16
16451;BME280;12243;42.708;23.310;2023-04-30T05:15:17;94812.50;;;11.65;80.67
16451;BME280;12243;42.708;23.310;2023-04-30T05:17:44;94804.75;;;11.83;79.61
16451;BME280;12243;42.708;23.310;2023-04-30T05:20:13;94807.25;;;11.85;79.23
16451;BME280;12243;42.708;23.310;2023-04-30T05:22:40;94804.63;;;11.95;79.07
16451;BME280;12243;42.708;23.310;2023-04-30T05:25:08;94809.72;;;11.86;78.38
16451;BME280;12243;42.708;23.310;2023-04-30T05:27:36;94805.72;;;11.92;78.37
16451;BME280;12243;42.708;23.310;2023-04-30T05:30:04;94807.38;;;11.93;78.16
16451;BME280;12243;42.708;23.310;2023-04-30T05:32:31;94811.91;;;12.01;77.65
16451;BME280;12243;42.708;23.310;2023-04-30T05:34:58;94816.56;;;12.07;78.75
16451;BME280;12243;42.708;23.310;2023-04-30T05:37:25;94813.06;;;12.16;78.10
16451;BME280;12243;42.708;23.310;2023-04-30T05:39:52;94812.22;;;12.25;78.13
16451;BME280;12243;42.708;23.310;2023-04-30T05:42:19;94812.00;;;12.46;77.18
16451;BME280;12243;42.708;23.310;2023-04-30T05:44:47;94811.22;;;12.63;75.02
16451;BME280;12243;42.708;23.310;2023-04-30T05:47:14;94802.16;;;12.58;75.31
16451;BME280;12243;42.708;23.310;2023-04-30T05:49:41;94797.34;;;12.63;75.57
16451;BME280;12243;42.708;23.310;2023-04-30T05:52:08;94805.78;;;12.75;74.49
16451;BME280;12243;42.708;23.310;2023-04-30T05:54:39;94809.41;;;12.92;73.77
16451;BME280;12243;42.708;23.310;2023-04-30T05:57:06;94806.97;;;13.08;72.97
16451;BME280;12243;42.708;23.310;2023-04-30T05:59:33;94813.09;;;13.17;73.49
16451;BME280;12243;42.708;23.310;2023-04-30T06:02:01;94811.19;;;13.37;72.47
16451;BME280;12243;42.708;23.310;2023-04-30T06:04:28;94815.81;;;13.43;71.84
16451;BME280;12243;42.708;23.310;2023-04-30T06:06:56;94818.44;;;13.43;71.87
16451;BME280;12243;42.708;23.310;2023-04-30T06:09:23;94822.44;;;13.55;71.35
16451;BME280;12243;42.708;23.310;2023-04-30T06:11:49;94830.75;;;13.68;69.61
16451;BME280;12243;42.708;23.310;2023-04-30T06:14:16;94829.69;;;13.61;70.48
16451;BME280;12243;42.708;23.310;2023-04-30T06:16:44;94828.81;;;13.70;70.71
16451;BME280;12243;42.708;23.310;2023-04-30T06:19:13;94827.78;;;13.89;70.06
16451;BME280;12243;42.708;23.310;2023-04-30T06:21:40;94831.06;;;14.17;68.59
16451;BME280;12243;42.708;23.310;2023-04-30T06:24:08;94835.53;;;14.25;67.76
16451;BME280;12243;42.708;23.310;2023-04-30T06:26:35;94832.09;;;14.24;67.52
16451;BME280;12243;42.708;23.310;2023-04-30T06:29:02;94835.00;;;14.13;68.54
16451;BME280;12243;42.708;23.310;2023-04-30T06:31:29;94836.63;;;14.14;69.08
16451;BME280;12243;42.708;23.310;2023-04-30T06:33:56;94837.66;;;14.21;69.07
16451;BME280;12243;42.708;23.310;2023-04-30T06:36:24;94832.41;;;14.21;69.21
16451;BME280;12243;42.708;23.310;2023-04-30T06:38:51;94827.13;;;14.73;69.00
16451;BME280;12243;42.708;23.310;2023-04-30T06:41:18;94824.72;;;15.71;64.67
16451;BME280;12243;42.708;23.310;2023-04-30T06:43:45;94829.28;;;16.10;63.29
16451;BME280;12243;42.708;23.310;2023-04-30T06:46:12;94831.56;;;16.13;60.99
16451;BME280;12243;42.708;23.310;2023-04-30T06:48:39;94834.41;;;15.87;62.61
16451;BME280;12243;42.708;23.310;2023-04-30T06:51:07;94829.59;;;16.32;62.59
16451;BME280;12243;42.708;23.310;2023-04-30T06:53:36;94828.47;;;16.74;59.84
16451;BME280;12243;42.708;23.310;2023-04-30T06:56:03;94830.06;;;16.91;59.68
16451;BME280;12243;42.708;23.310;2023-04-30T06:58:30;94822.53;;;16.88;59.10
16451;BME280;12243;42.708;23.310;2023-04-30T07:00:57;94835.34;;;16.83;59.80
16451;BME280;12243;42.708;23.310;2023-04-30T07:03:24;94829.38;;;16.97;59.54
16451;BME280;12243;42.708;23.310;2023-04-30T07:05:51;94830.84;;;17.00;58.65
16451;BME280;12243;42.708;23.310;2023-04-30T07:08:18;94832.94;;;17.04;58.33
16451;BME280;12243;42.708;23.310;2023-04-30T07:10:47;94828.34;;;17.06;57.85
16451;BME280;12243;42.708;23.310;2023-04-30T07:13:14;94823.28;;;16.97;57.65
16451;BME280;12243;42.708;23.310;2023-04-30T07:15:42;94831.22;;;16.88;58.04
16451;BME280;12243;42.708;23.310;2023-04-30T07:18:09;94831.91;;;16.82;58.59
16451;BME280;12243;42.708;23.310;2023-04-30T07:20:36;94826.50;;;16.76;58.99
16451;BME280;12243;42.708;23.310;2023-04-30T07:23:03;94829.63;;;16.71;59.00
16451;BME280;12243;42.708;23.310;2023-04-30T07:25:30;94833.06;;;16.72;59.56
16451;BME280;12243;42.708;23.310;2023-04-30T07:27:58;94833.69;;;16.90;59.43
16451;BME280;12243;42.708;23.310;2023-04-30T07:30:25;94829.38;;;16.97;60.03
16451;BME280;12243;42.708;23.310;2023-04-30T07:32:52;94829.28;;;17.13;59.01
16451;BME280;12243;42.708;23.310;2023-04-30T07:35:19;94827.22;;;17.32;58.36
16451;BME280;12243;42.708;23.310;2023-04-30T07:37:46;94835.41;;;17.60;57.48
16451;BME280;12243;42.708;23.310;2023-04-30T07:40:12;94836.28;;;17.98;56.32
16451;BME280;12243;42.708;23.310;2023-04-30T07:42:40;94832.88;;;18.13;54.37
16451;BME280;12243;42.708;23.310;2023-04-30T07:45:09;94832.94;;;18.04;54.53
16451;BME280;12243;42.708;23.310;2023-04-30T07:47:37;94831.44;;;18.10;54.85
16451;BME280;12243;42.708;23.310;2023-04-30T07:50:04;94825.16;;;18.26;53.97
16451;BME280;12243;42.708;23.310;2023-04-30T07:52:32;94832.38;;;18.47;52.41
16451;BME280;12243;42.708;23.310;2023-04-30T07:55:00;94830.94;;;18.74;51.98
16451;BME280;12243;42.708;23.310;2023-04-30T07:57:27;94840.13;;;18.93;51.28
16451;BME280;12243;42.708;23.310;2023-04-30T07:59:54;94836.66;;;18.92;51.29
16451;BME280;12243;42.708;23.310;2023-04-30T08:02:25;94840.41;;;18.98;50.68
16451;BME280;12243;42.708;23.310;2023-04-30T08:04:52;94836.84;;;19.06;50.42
16451;BME280;12243;42.708;23.310;2023-04-30T08:07:19;94839.72;;;19.11;50.15
16451;BME280;12243;42.708;23.310;2023-04-30T08:09:46;94835.41;;;19.39;50.05
16451;BME280;12243;42.708;23.310;2023-04-30T08:12:13;94845.59;;;19.42;49.79
16451;BME280;12243;42.708;23.310;2023-04-30T08:14:42;94837.88;;;19.26;49.53
16451;BME280;12243;42.708;23.310;2023-04-30T08:17:09;94842.84;;;18.99;50.46
16451;BME280;12243;42.708;23.310;2023-04-30T08:19:37;94852.16;;;18.80;51.10
16451;BME280;12243;42.708;23.310;2023-04-30T08:22:04;94843.72;;;18.47;51.73
16451;BME280;12243;42.708;23.310;2023-04-30T08:24:31;94848.97;;;18.18;52.94
16451;BME280;12243;42.708;23.310;2023-04-30T08:26:58;94849.63;;;17.82;54.28
16451;BME280;12243;42.708;23.310;2023-04-30T08:29:28;94844.50;;;17.57;55.43
16451;BME280;12243;42.708;23.310;2023-04-30T08:31:56;94848.19;;;17.71;54.60
16451;BME280;12243;42.708;23.310;2023-04-30T08:34:25;94843.97;;;17.85;53.84
16451;BME280;12243;42.708;23.310;2023-04-30T08:36:54;94835.31;;;17.99;52.84
16451;BME280;12243;42.708;23.310;2023-04-30T08:39:21;94833.72;;;18.28;52.63
16451;BME280;12243;42.708;23.310;2023-04-30T08:41:52;94837.75;;;18.39;52.08
16451;BME280;12243;42.708;23.310;2023-04-30T08:44:21;94842.75;;;18.48;52.24
16451;BME280;12243;42.708;23.310;2023-04-30T08:46:51;94837.03;;;18.89;50.84
16451;BME280;12243;42.708;23.310;2023-04-30T08:49:19;94827.38;;;18.96;50.73
16451;BME280;12243;42.708;23.310;2023-04-30T08:51:47;94824.19;;;19.37;49.60
16451;BME280;12243;42.708;23.310;2023-04-30T08:54:17;94819.84;;;19.66;48.53
16451;BME280;12243;42.708;23.310;2023-04-30T08:56:44;94821.28;;;20.18;47.02
16451;BME280;12243;42.708;23.310;2023-04-30T08:59:11;94813.28;;;20.61;45.23
16451;BME280;12243;42.708;23.310;2023-04-30T09:01:38;94805.94;;;21.04;44.62
16451;BME280;12243;42.708;23.310;2023-04-30T09:04:05;94810.19;;;21.47;43.20
16451;BME280;12243;42.708;23.310;2023-04-30T09:06:32;94803.50;;;21.77;42.29
16451;BME280;12243;42.708;23.310;2023-04-30T09:09:10;94800.66;;;21.99;41.03
16451;BME280;12243;42.708;23.310;2023-04-30T09:11:39;94802.13;;;22.21;40.48
16451;BME280;12243;42.708;23.310;2023-04-30T09:14:06;94804.56;;;22.36;40.08
16451;BME280;12243;42.708;23.310;2023-04-30T09:16:44;94789.59;;;22.68;39.70
16451;BME280;12243;42.708;23.310;2023-04-30T09:19:22;94802.00;;;22.88;39.63
16451;BME280;12243;42.708;23.310;2023-04-30T09:21:49;94788.16;;;22.59;39.62
16451;BME280;12243;42.708;23.310;2023-04-30T09:24:17;94791.44;;;22.61;39.51
16451;BME280;12243;42.708;23.310;2023-04-30T09:26:46;94780.69;;;23.01;38.81
16451;BME280;12243;42.708;23.310;2023-04-30T09:29:13;94777.47;;;22.92;39.04
16451;BME280;12243;42.708;23.310;2023-04-30T09:31:42;94769.44;;;22.27;40.17
16451;BME280;12243;42.708;23.310;2023-04-30T09:34:10;94768.97;;;22.70;40.61
16451;BME280;12243;42.708;23.310;2023-04-30T09:36:50;94770.38;;;23.24;39.48
16451;BME280;12243;42.708;23.310;2023-04-30T09:39:18;94773.97;;;23.43;37.80
16451;BME280;12243;42.708;23.310;2023-04-30T09:41:46;94763.22;;;23.25;37.88
16451;BME280;12243;42.708;23.310;2023-04-30T09:44:26;94761.88;;;23.09;38.17
16451;BME280;12243;42.708;23.310;2023-04-30T09:46:54;94767.59;;;23.13;38.59
16451;BME280;12243;42.708;23.310;2023-04-30T09:49:21;94767.25;;;22.96;38.71
16451;BME280;12243;42.708;23.310;2023-04-30T09:51:55;94768.31;;;22.75;39.31
16451;BME280;12243;42.708;23.310;2023-04-30T09:54:24;94762.50;;;22.13;40.09
16451;BME280;12243;42.708;23.310;2023-04-30T09:56:54;94759.25;;;22.04;39.79
16451;BME280;12243;42.708;23.310;2023-04-30T09:59:26;94754.00;;;22.82;39.71
16451;BME280;12243;42.708;23.310;2023-04-30T10:01:57;94751.34;;;23.27;38.97
16451;BME280;12243;42.708;23.310;2023-04-30T10:04:25;94748.56;;;23.54;37.50
16451;BME280;12243;42.708;23.310;2023-04-30T10:06:54;94745.47;;;23.89;36.79
16451;BME280;12243;42.708;23.310;2023-04-30T10:09:25;94742.78;;;24.57;35.66
16451;BME280;12243;42.708;23.310;2023-04-30T10:11:55;94739.88;;;24.40;35.04
16451;BME280;12243;42.708;23.310;2023-04-30T10:14:24;94742.34;;;23.60;36.89
16451;BME280;12243;42.708;23.310;2023-04-30T10:16:58;94754.09;;;22.56;38.68
16451;BME280;12243;42.708;23.310;2023-04-30T10:19:30;94770.03;;;20.82;41.10
16451;BME280;12243;42.708;23.310;2023-04-30T10:21:58;94750.53;;;19.64;44.71
16451;BME280;12243;42.708;23.310;2023-04-30T10:24:26;94779.28;;;18.79;50.21
16451;BME280;12243;42.708;23.310;2023-04-30T10:26:54;94790.19;;;17.56;60.31
16451;BME280;12243;42.708;23.310;2023-04-30T10:29:23;94828.47;;;16.18;70.40
16451;BME280;12243;42.708;23.310;2023-04-30T10:31:51;94839.00;;;15.02;76.03
16451;BME280;12243;42.708;23.310;2023-04-30T10:34:27;94806.31;;;14.38;71.93
16451;BME280;12243;42.708;23.310;2023-04-30T10:37:02;94794.84;;;14.39;79.10
16451;BME280;12243;42.708;23.310;2023-04-30T10:39:32;94791.88;;;14.68;77.48
16451;BME280;12243;42.708;23.310;2023-04-30T10:42:04;94794.41;;;14.94;77.66
16451;BME280;12243;42.708;23.310;2023-04-30T10:44:32;94786.94;;;15.40;79.94
16451;BME280;12243;42.708;23.310;2023-04-30T10:46:59;94786.75;;;16.15;82.04
16451;BME280;12243;42.708;23.310;2023-04-30T10:49:28;94781.59;;;17.08;79.01
16451;BME280;12243;42.708;23.310;2023-04-30T10:51:58;94781.16;;;18.12;74.28
16451;BME280;12243;42.708;23.310;2023-04-30T10:54:26;94783.84;;;19.07;70.45
16451;BME280;12243;42.708;23.310;2023-04-30T10:56:54;94777.41;;;19.95;61.76
16451;BME280;12243;42.708;23.310;2023-04-30T10:59:36;94767.72;;;20.37;59.42
16451;BME280;12243;42.708;23.310;2023-04-30T11:02:03;94766.78;;;20.86;60.72
16451;BME280;12243;42.708;23.310;2023-04-30T11:04:31;94763.28;;;21.40;57.30
16451;BME280;12243;42.708;23.310;2023-04-30T11:07:06;94762.94;;;21.77;54.13
16451;BME280;12243;42.708;23.310;2023-04-30T11:09:43;94756.78;;;22.03;53.28
16451;BME280;12243;42.708;23.310;2023-04-30T11:12:15;94755.16;;;22.02;51.29
16451;BME280;12243;42.708;23.310;2023-04-30T11:14:49;94756.81;;;22.16;53.25
16451;BME280;12243;42.708;23.310;2023-04-30T11:17:21;94764.16;;;21.81;50.23
16451;BME280;12243;42.708;23.310;2023-04-30T11:19:51;94765.78;;;21.62;48.84
16451;BME280;12243;42.708;23.310;2023-04-30T11:22:20;94759.41;;;21.36;48.89
16451;BME280;12243;42.708;23.310;2023-04-30T11:25:03;94757.94;;;21.27;49.32
16451;BME280;12243;42.708;23.310;2023-04-30T11:27:32;94763.94;;;20.94;51.37
16451;BME280;12243;42.708;23.310;2023-04-30T11:30:02;94755.69;;;20.69;52.52
16451;BME280;12243;42.708;23.310;2023-04-30T11:32:34;94753.78;;;20.98;52.02
16451;BME280;12243;42.708;23.310;2023-04-30T11:35:03;94754.13;;;21.50;51.54
16451;BME280;12243;42.708;23.310;2023-04-30T11:37:32;94765.72;;;21.35;53.72
16451;BME280;12243;42.708;23.310;2023-04-30T11:40:01;94757.59;;;21.57;52.63
16451;BME280;12243;42.708;23.310;2023-04-30T11:42:29;94757.22;;;21.73;49.93
16451;BME280;12243;42.708;23.310;2023-04-30T11:45:08;94757.31;;;21.18;51.19
16451;BME280;12243;42.708;23.310;2023-04-30T11:47:42;94761.53;;;21.00;52.66
16451;BME280;12243;42.708;23.310;2023-04-30T11:50:11;94757.94;;;21.27;53.06
16451;BME280;12243;42.708;23.310;2023-04-30T11:52:38;94753.53;;;21.41;53.62
16451;BME280;12243;42.708;23.310;2023-04-30T11:55:11;94750.66;;;21.36;51.62
16451;BME280;12243;42.708;23.310;2023-04-30T11:57:41;94744.94;;;21.39;48.98
16451;BME280;12243;42.708;23.310;2023-04-30T12:00:20;94755.47;;;21.19;49.50
16451;BME280;12243;42.708;23.310;2023-04-30T12:02:48;94741.03;;;20.67;50.61
16451;BME280;12243;42.708;23.310;2023-04-30T12:05:16;94747.25;;;19.90;51.69
16451;BME280;12243;42.708;23.310;2023-04-30T12:07:48;94749.22;;;19.38;52.61
16451;BME280;12243;42.708;23.310;2023-04-30T12:10:18;94757.13;;;18.95;55.21
16451;BME280;12243;42.708;23.310;2023-04-30T12:12:46;94765.59;;;18.61;57.88
16451;BME280;12243;42.708;23.310;2023-04-30T12:15:16;94762.91;;;18.10;59.48
16451;BME280;12243;42.708;23.310;2023-04-30T12:17:44;94790.00;;;17.81;59.32
16451;BME280;12243;42.708;23.310;2023-04-30T12:20:15;94774.69;;;17.61;63.26
16451;BME280;12243;42.708;23.310;2023-04-30T12:22:44;94768.97;;;17.12;70.38
16451;BME280;12243;42.708;23.310;2023-04-30T12:25:17;94774.91;;;16.75;71.68
16451;BME280;12243;42.708;23.310;2023-04-30T12:27:49;94775.84;;;16.82;74.94
16451;BME280;12243;42.708;23.310;2023-04-30T12:30:20;94775.91;;;16.65;75.43
16451;BME280;12243;42.708;23.310;2023-04-30T12:32:51;94771.94;;;16.78;77.13
16451;BME280;12243;42.708;23.310;2023-04-30T12:35:20;94778.50;;;16.82;74.46
16451;BME280;12243;42.708;23.310;2023-04-30T12:37:52;94786.63;;;17.26;73.82
16451;BME280;12243;42.708;23.310;2023-04-30T12:40:21;94779.69;;;17.94;69.56
16451;BME280;12243;42.708;23.310;2023-04-30T12:42:58;94776.06;;;18.54;64.38
16451;BME280;12243;42.708;23.310;2023-04-30T12:45:44;94770.34;;;19.17;60.24
16451;BME280;12243;42.708;23.310;2023-04-30T12:48:12;94768.47;;;19.96;60.47
16451;BME280;12243;42.708;23.310;2023-04-30T12:50:39;94764.88;;;20.39;57.84
16451;BME280;12243;42.708;23.310;2023-04-30T12:53:07;94774.75;;;20.52;56.02
16451;BME280;12243;42.708;23.310;2023-04-30T12:55:34;94777.06;;;20.33;55.44
16451;BME280;12243;42.708;23.310;2023-04-30T12:58:08;94776.97;;;20.20;55.65